createdAt,value
2017-08-10T00:00:40.848Z,17.50
2017-08-10T00:01:42.278Z,17.63
2017-08-10T00:02:43.728Z,17.76
2017-08-10T00:03:45.234Z,17.69
2017-08-10T00:04:46.656Z,17.73
2017-08-10T00:05:48.124Z,17.70
2017-08-10T00:06:49.548Z,17.54
2017-08-10T00:07:50.973Z,17.55
2017-08-10T00:08:52.398Z,17.84
2017-08-10T00:09:53.820Z,17.78
2017-08-10T00:10:55.321Z,17.71
2017-08-10T00:11:56.752Z,17.70
2017-08-10T00:12:58.178Z,17.69
2017-08-10T00:13:59.674Z,17.57
2017-08-10T00:15:01.099Z,17.57
2017-08-10T00:16:02.527Z,17.76
2017-08-10T00:17:03.950Z,17.67
2017-08-10T00:18:05.414Z,17.73
2017-08-10T00:19:06.841Z,17.78
2017-08-10T00:20:08.267Z,17.63
2017-08-10T00:21:09.697Z,17.50
2017-08-10T00:22:11.122Z,17.43
2017-08-10T00:23:12.546Z,17.47
2017-08-10T00:24:13.973Z,17.33
2017-08-10T00:25:15.399Z,17.46
2017-08-10T00:26:16.823Z,17.43
2017-08-10T00:27:18.241Z,17.38
2017-08-10T00:28:19.666Z,17.43
2017-08-10T00:29:21.103Z,17.51
2017-08-10T00:30:22.529Z,17.57
2017-08-10T00:31:23.959Z,17.74
2017-08-10T00:32:25.390Z,17.70
2017-08-10T00:33:26.813Z,17.73
2017-08-10T00:34:28.227Z,17.79
2017-08-10T00:35:29.656Z,17.78
2017-08-10T00:36:31.081Z,17.82
2017-08-10T00:37:32.511Z,17.89
2017-08-10T00:38:33.927Z,17.88
2017-08-10T00:39:35.358Z,18.02
2017-08-10T00:40:36.777Z,17.99
2017-08-10T00:41:38.209Z,17.91
2017-08-10T00:42:39.664Z,17.87
2017-08-10T00:43:41.095Z,17.84
2017-08-10T00:44:42.519Z,17.67
2017-08-10T00:45:43.946Z,17.23
2017-08-10T00:46:45.368Z,17.11
2017-08-10T00:47:46.789Z,16.95
2017-08-10T00:48:48.218Z,16.92
2017-08-10T00:49:49.646Z,16.92
2017-08-10T00:50:51.072Z,17.00
2017-08-10T00:51:52.509Z,17.11
2017-08-10T00:52:53.934Z,17.00
2017-08-10T00:53:55.362Z,16.95
2017-08-10T00:54:56.778Z,16.99
2017-08-10T00:55:58.204Z,16.95
2017-08-10T00:56:59.626Z,16.85
2017-08-10T00:58:01.052Z,16.77
2017-08-10T00:59:02.477Z,16.70
2017-08-10T01:00:03.905Z,16.90
2017-08-10T01:01:05.325Z,17.13
2017-08-10T01:02:06.750Z,17.20
2017-08-10T01:03:08.172Z,17.25
2017-08-10T01:04:09.601Z,17.29
2017-08-10T01:05:11.018Z,17.23
2017-08-10T01:06:12.446Z,17.18
2017-08-10T01:07:13.877Z,17.20
2017-08-10T01:08:15.305Z,17.15
2017-08-10T01:09:16.726Z,17.26
2017-08-10T01:10:18.165Z,17.28
2017-08-10T01:11:19.587Z,17.35
2017-08-10T01:12:21.016Z,17.32
2017-08-10T01:13:22.452Z,17.25
2017-08-10T01:14:23.902Z,17.03
2017-08-10T01:15:25.333Z,16.83
2017-08-10T01:16:26.762Z,16.81
2017-08-10T01:17:28.190Z,16.80
2017-08-10T01:18:29.609Z,16.67
2017-08-10T01:19:31.029Z,16.73
2017-08-10T01:20:32.456Z,16.80
2017-08-10T01:21:33.876Z,16.67
2017-08-10T01:22:35.308Z,17.07
2017-08-10T01:23:36.749Z,17.22
2017-08-10T01:24:38.166Z,17.11
2017-08-10T01:25:39.598Z,17.04
2017-08-10T01:26:41.022Z,17.03
2017-08-10T01:27:42.446Z,16.92
2017-08-10T01:28:43.870Z,16.89
2017-08-10T01:29:45.289Z,16.92
2017-08-10T01:30:46.714Z,16.80
2017-08-10T01:31:48.138Z,16.93
2017-08-10T01:32:49.558Z,17.00
2017-08-10T01:33:50.986Z,16.93
2017-08-10T01:34:52.407Z,16.92
2017-08-10T01:35:53.837Z,16.80
2017-08-10T01:36:55.268Z,16.89
2017-08-10T01:37:56.693Z,16.89
2017-08-10T01:38:58.118Z,16.92
2017-08-10T01:39:59.544Z,16.93
2017-08-10T01:41:00.984Z,16.99
2017-08-10T01:42:02.398Z,17.08
2017-08-10T01:43:03.818Z,17.03
2017-08-10T01:44:05.244Z,17.11
2017-08-10T01:45:06.680Z,17.20
2017-08-10T01:46:08.096Z,17.26
2017-08-10T01:47:09.520Z,17.23
2017-08-10T01:48:10.957Z,17.15
2017-08-10T01:49:12.378Z,16.92
2017-08-10T01:50:13.797Z,16.92
2017-08-10T01:51:15.227Z,16.93
2017-08-10T01:52:16.647Z,16.99
2017-08-10T01:53:18.078Z,17.18
2017-08-10T01:54:19.495Z,17.25
2017-08-10T01:55:20.917Z,17.30
2017-08-10T01:56:22.348Z,17.08
2017-08-10T01:57:23.780Z,17.10
2017-08-10T01:58:25.196Z,17.14
2017-08-10T01:59:26.618Z,17.20
2017-08-10T02:00:28.044Z,17.20
2017-08-10T02:01:29.470Z,17.15
2017-08-10T02:02:30.893Z,16.96
2017-08-10T02:03:32.321Z,16.85
2017-08-10T02:04:33.742Z,16.73
2017-08-10T02:05:35.167Z,16.73
2017-08-10T02:06:36.592Z,16.71
2017-08-10T02:07:38.016Z,16.85
2017-08-10T02:08:39.445Z,16.99
2017-08-10T02:09:40.872Z,17.13
2017-08-10T02:10:42.293Z,17.00
2017-08-10T02:11:43.722Z,16.93
2017-08-10T02:12:45.233Z,16.93
2017-08-10T02:13:46.656Z,16.88
2017-08-10T02:14:48.079Z,16.99
2017-08-10T02:15:49.505Z,16.99
2017-08-10T02:16:50.927Z,17.03
2017-08-10T02:17:52.351Z,17.04
2017-08-10T02:18:53.908Z,17.11
2017-08-10T02:19:55.334Z,17.10
2017-08-10T02:20:56.754Z,17.23
2017-08-10T02:21:58.181Z,17.11
2017-08-10T02:22:59.681Z,17.08
2017-08-10T02:24:01.119Z,17.11
2017-08-10T02:25:02.547Z,17.10
2017-08-10T02:26:03.978Z,17.03
2017-08-10T02:27:05.403Z,17.00
2017-08-10T02:28:06.830Z,17.03
2017-08-10T02:29:08.262Z,17.03
2017-08-10T02:30:09.680Z,17.08
2017-08-10T02:31:11.103Z,17.11
2017-08-10T02:32:12.526Z,17.17
2017-08-10T02:33:13.950Z,17.20
2017-08-10T02:34:15.376Z,16.90
2017-08-10T02:35:16.801Z,16.70
2017-08-10T02:36:18.226Z,16.55
2017-08-10T02:37:19.657Z,16.55
2017-08-10T02:38:21.088Z,16.65
2017-08-10T02:39:22.509Z,16.75
2017-08-10T02:40:23.931Z,16.75
2017-08-10T02:41:25.369Z,16.74
2017-08-10T02:42:26.799Z,16.74
2017-08-10T02:43:28.260Z,16.80
2017-08-10T02:44:29.678Z,16.75
2017-08-10T02:45:31.108Z,16.70
2017-08-10T02:46:32.531Z,16.53
2017-08-10T02:47:33.955Z,16.55
2017-08-10T02:48:35.381Z,16.38
2017-08-10T02:49:36.804Z,16.34
2017-08-10T02:50:38.234Z,16.55
2017-08-10T02:51:39.647Z,16.26
2017-08-10T02:52:41.069Z,16.49
2017-08-10T02:53:42.495Z,16.49
2017-08-10T02:54:43.929Z,16.63
2017-08-10T02:55:45.351Z,16.49
2017-08-10T02:56:46.776Z,16.23
2017-08-10T02:57:48.196Z,16.30
2017-08-10T02:58:49.628Z,16.41
2017-08-10T02:59:51.051Z,16.48
2017-08-10T03:00:52.476Z,16.49
2017-08-10T03:01:53.905Z,16.55
2017-08-10T03:02:55.323Z,16.73
2017-08-10T03:03:56.748Z,16.70
2017-08-10T03:04:58.179Z,16.80
2017-08-10T03:05:59.597Z,16.68
2017-08-10T03:07:01.022Z,16.60
2017-08-10T03:08:02.447Z,16.53
2017-08-10T03:09:03.870Z,16.65
2017-08-10T03:10:05.299Z,16.60
2017-08-10T03:11:06.716Z,16.60
2017-08-10T03:12:08.139Z,16.63
2017-08-10T03:13:09.569Z,16.55
2017-08-10T03:14:10.996Z,16.62
2017-08-10T03:15:12.420Z,16.52
2017-08-10T03:16:13.846Z,16.55
2017-08-10T03:17:15.276Z,16.56
2017-08-10T03:18:16.701Z,16.63
2017-08-10T03:19:18.140Z,16.73
2017-08-10T03:20:19.576Z,16.78
2017-08-10T03:21:20.999Z,16.98
2017-08-10T03:22:22.428Z,17.07
2017-08-10T03:23:23.856Z,17.07
2017-08-10T03:24:25.279Z,17.11
2017-08-10T03:25:26.708Z,17.20
2017-08-10T03:26:28.131Z,17.29
2017-08-10T03:27:29.549Z,17.50
2017-08-10T03:28:30.970Z,17.47
2017-08-10T03:29:32.395Z,17.43
2017-08-10T03:30:33.816Z,17.36
2017-08-10T03:31:35.240Z,17.48
2017-08-10T03:32:36.655Z,17.36
2017-08-10T03:33:38.080Z,17.29
2017-08-10T03:34:39.509Z,17.44
2017-08-10T03:35:40.928Z,17.22
2017-08-10T03:36:42.356Z,17.28
2017-08-10T03:37:43.784Z,17.38
2017-08-10T03:38:45.209Z,17.43
2017-08-10T03:39:46.635Z,17.50
2017-08-10T03:40:48.060Z,17.23
2017-08-10T03:41:49.494Z,17.10
2017-08-10T03:42:50.921Z,17.22
2017-08-10T03:43:52.359Z,17.36
2017-08-10T03:44:53.797Z,17.40
2017-08-10T03:45:55.220Z,17.23
2017-08-10T03:46:56.647Z,17.28
2017-08-10T03:47:58.073Z,17.32
2017-08-10T03:48:59.497Z,17.35
2017-08-10T03:50:00.920Z,17.41
2017-08-10T03:51:02.352Z,17.23
2017-08-10T03:52:03.776Z,17.07
2017-08-10T03:53:05.194Z,17.13
2017-08-10T03:54:06.620Z,17.04
2017-08-10T03:55:08.054Z,16.90
2017-08-10T03:56:09.486Z,16.88
2017-08-10T03:57:10.906Z,16.85
2017-08-10T03:58:12.327Z,17.06
2017-08-10T03:59:13.755Z,16.95
2017-08-10T04:00:15.176Z,16.90
2017-08-10T04:01:16.598Z,17.00
2017-08-10T04:02:18.014Z,16.95
2017-08-10T04:03:19.436Z,17.03
2017-08-10T04:04:20.858Z,17.10
2017-08-10T04:05:22.284Z,17.28
2017-08-10T04:06:23.702Z,17.48
2017-08-10T04:07:25.125Z,17.50
2017-08-10T04:08:26.559Z,17.43
2017-08-10T04:09:27.979Z,17.44
2017-08-10T04:10:29.408Z,17.63
2017-08-10T04:11:30.838Z,17.66
2017-08-10T04:12:32.270Z,17.47
2017-08-10T04:13:33.700Z,17.36
2017-08-10T04:14:35.125Z,17.36
2017-08-10T04:15:36.546Z,17.43
2017-08-10T04:16:37.982Z,17.33
2017-08-10T04:17:39.502Z,17.23
2017-08-10T04:18:40.931Z,17.22
2017-08-10T04:19:42.359Z,17.18
2017-08-10T04:20:43.864Z,17.14
2017-08-10T04:21:45.307Z,16.98
2017-08-10T04:22:46.729Z,16.90
2017-08-10T04:23:48.156Z,16.83
2017-08-10T04:24:49.579Z,16.96
2017-08-10T04:25:51.004Z,16.95
2017-08-10T04:26:52.429Z,16.93
2017-08-10T04:27:53.867Z,16.85
2017-08-10T04:28:55.293Z,16.88
2017-08-10T04:29:56.720Z,16.81
2017-08-10T04:30:58.157Z,16.73
2017-08-10T04:31:59.607Z,16.65
2017-08-10T04:33:01.037Z,16.53
2017-08-10T04:34:02.469Z,16.63
2017-08-10T04:35:03.906Z,16.55
2017-08-10T04:36:05.409Z,16.63
2017-08-10T04:37:06.826Z,16.75
2017-08-10T04:38:08.260Z,16.81
2017-08-10T04:39:09.797Z,16.90
2017-08-10T04:40:11.239Z,16.92
2017-08-10T04:41:12.669Z,16.92
2017-08-10T04:42:14.100Z,16.96
2017-08-10T04:43:15.525Z,16.92
2017-08-10T04:44:16.961Z,16.95
2017-08-10T04:45:18.386Z,17.04
2017-08-10T04:46:19.815Z,17.10
2017-08-10T04:47:21.252Z,17.04
2017-08-10T04:48:22.677Z,16.93
2017-08-10T04:49:24.103Z,16.92
2017-08-10T04:50:25.586Z,16.93
2017-08-10T04:51:27.009Z,17.07
2017-08-10T04:52:28.435Z,17.08
2017-08-10T04:53:29.869Z,17.13
2017-08-10T04:54:31.301Z,17.08
2017-08-10T04:55:32.723Z,16.95
2017-08-10T04:56:34.147Z,16.83
2017-08-10T04:57:35.573Z,16.80
2017-08-10T04:58:37.004Z,16.83
2017-08-10T04:59:38.421Z,16.99
2017-08-10T05:00:39.850Z,17.08
2017-08-10T05:01:41.281Z,17.08
2017-08-10T05:02:42.706Z,17.06
2017-08-10T05:03:44.133Z,17.13
2017-08-10T05:04:45.557Z,17.10
2017-08-10T05:05:46.980Z,17.08
2017-08-10T05:06:48.414Z,17.23
2017-08-10T05:07:49.845Z,17.41
2017-08-10T05:08:51.273Z,17.25
2017-08-10T05:09:52.697Z,17.22
2017-08-10T05:10:54.136Z,17.11
2017-08-10T05:11:55.558Z,17.07
2017-08-10T05:12:56.989Z,17.14
2017-08-10T05:13:58.417Z,17.40
2017-08-10T05:14:59.837Z,17.41
2017-08-10T05:16:01.272Z,17.33
2017-08-10T05:17:02.705Z,17.43
2017-08-10T05:18:04.133Z,17.40
2017-08-10T05:19:05.560Z,17.14
2017-08-10T05:20:06.989Z,17.04
2017-08-10T05:21:08.417Z,17.23
2017-08-10T05:22:09.847Z,17.08
2017-08-10T05:23:11.271Z,17.13
2017-08-10T05:24:12.704Z,16.99
2017-08-10T05:25:14.128Z,17.10
2017-08-10T05:26:15.562Z,17.18
2017-08-10T05:27:16.987Z,17.29
2017-08-10T05:28:18.416Z,17.50
2017-08-10T05:29:19.842Z,17.55
2017-08-10T05:30:21.274Z,17.57
2017-08-10T05:31:22.696Z,17.55
2017-08-10T05:32:24.127Z,17.57
2017-08-10T05:33:25.555Z,17.70
2017-08-10T05:34:26.977Z,17.76
2017-08-10T05:35:28.406Z,17.69
2017-08-10T05:36:29.846Z,18.00
2017-08-10T05:37:31.272Z,17.99
2017-08-10T05:38:32.696Z,18.17
2017-08-10T05:39:34.123Z,18.06
2017-08-10T05:40:35.552Z,18.02
2017-08-10T05:41:36.983Z,18.02
2017-08-10T05:42:38.408Z,18.04
2017-08-10T05:43:39.839Z,17.97
2017-08-10T05:44:41.274Z,18.07
2017-08-10T05:45:42.700Z,18.15
2017-08-10T05:46:44.133Z,18.33
2017-08-10T05:47:45.566Z,18.24
2017-08-10T05:48:47.002Z,18.22
2017-08-10T05:49:48.430Z,18.21
2017-08-10T05:50:49.941Z,18.34
2017-08-10T05:51:51.363Z,18.29
2017-08-10T05:52:52.798Z,18.39
2017-08-10T05:53:54.220Z,18.29
2017-08-10T05:54:55.662Z,18.36
2017-08-10T05:55:57.093Z,18.42
2017-08-10T05:56:58.523Z,18.47
2017-08-10T05:57:59.984Z,18.42
2017-08-10T05:59:01.411Z,18.28
2017-08-10T06:00:02.843Z,18.28
2017-08-10T06:01:04.268Z,18.21
2017-08-10T06:02:05.798Z,18.00
2017-08-10T06:03:07.226Z,18.28
2017-08-10T06:04:08.655Z,18.21
2017-08-10T06:05:10.120Z,18.22
2017-08-10T06:06:11.551Z,18.39
2017-08-10T06:07:12.981Z,18.25
2017-08-10T06:08:14.410Z,18.25
2017-08-10T06:09:15.845Z,18.34
2017-08-10T06:10:17.281Z,18.55
2017-08-10T06:11:18.707Z,18.59
2017-08-10T06:12:20.144Z,18.74
2017-08-10T06:13:21.584Z,18.87
2017-08-10T06:14:23.018Z,18.83
2017-08-10T06:15:24.447Z,18.84
2017-08-10T06:16:25.957Z,18.67
2017-08-10T06:17:27.391Z,18.64
2017-08-10T06:18:28.819Z,18.62
2017-08-10T06:19:30.248Z,18.74
2017-08-10T06:20:31.671Z,18.74
2017-08-10T06:21:33.207Z,18.97
2017-08-10T06:22:34.632Z,18.98
2017-08-10T06:23:36.097Z,18.95
2017-08-10T06:24:37.600Z,19.05
2017-08-10T06:25:39.033Z,19.08
2017-08-10T06:26:40.464Z,19.17
2017-08-10T06:27:41.897Z,19.28
2017-08-10T06:28:43.329Z,19.23
2017-08-10T06:29:44.764Z,19.25
2017-08-10T06:30:46.188Z,19.23
2017-08-10T06:31:47.621Z,19.31
2017-08-10T06:32:49.058Z,19.31
2017-08-10T06:33:50.491Z,19.18
2017-08-10T06:34:51.932Z,19.14
2017-08-10T06:35:53.362Z,18.98
2017-08-10T06:36:54.794Z,19.06
2017-08-10T06:37:56.223Z,19.14
2017-08-10T06:38:57.669Z,19.06
2017-08-10T06:39:59.083Z,19.18
2017-08-10T06:41:00.512Z,19.28
2017-08-10T06:42:01.942Z,19.31
2017-08-10T06:43:03.367Z,19.25
2017-08-10T06:44:04.803Z,19.29
2017-08-10T06:45:06.236Z,19.25
2017-08-10T06:46:07.667Z,19.36
2017-08-10T06:47:09.093Z,19.48
2017-08-10T06:48:10.514Z,19.42
2017-08-10T06:49:11.945Z,19.25
2017-08-10T06:50:13.375Z,19.17
2017-08-10T06:51:14.803Z,19.06
2017-08-10T06:52:16.231Z,19.11
2017-08-10T06:53:17.669Z,19.11
2017-08-10T06:54:19.098Z,19.11
2017-08-10T06:55:20.529Z,19.11
2017-08-10T06:56:21.960Z,19.06
2017-08-10T06:57:23.393Z,19.31
2017-08-10T06:58:24.826Z,19.51
2017-08-10T06:59:26.260Z,19.42
2017-08-10T07:00:27.690Z,19.36
2017-08-10T07:01:29.285Z,19.23
2017-08-10T07:02:30.691Z,19.24
2017-08-10T07:03:32.122Z,19.39
2017-08-10T07:04:33.551Z,19.53
2017-08-10T07:05:34.985Z,19.42
2017-08-10T07:06:36.413Z,19.43
2017-08-10T07:07:37.841Z,19.39
2017-08-10T07:08:39.272Z,19.39
2017-08-10T07:09:40.700Z,19.53
2017-08-10T07:10:42.132Z,19.32
2017-08-10T07:11:43.568Z,19.31
2017-08-10T07:12:45.000Z,19.21
2017-08-10T07:13:46.433Z,19.24
2017-08-10T07:14:47.875Z,19.10
2017-08-10T07:15:49.299Z,19.15
2017-08-10T07:16:50.724Z,19.31
2017-08-10T07:17:52.157Z,19.38
2017-08-10T07:18:53.582Z,19.46
2017-08-10T07:19:55.014Z,19.48
2017-08-10T07:20:56.441Z,19.38
2017-08-10T07:21:57.866Z,19.42
2017-08-10T07:22:59.295Z,19.18
2017-08-10T07:24:00.722Z,19.15
2017-08-10T07:25:02.150Z,19.17
2017-08-10T07:26:03.582Z,19.38
2017-08-10T07:27:05.005Z,19.38
2017-08-10T07:28:06.441Z,19.29
2017-08-10T07:29:07.878Z,19.40
2017-08-10T07:30:09.311Z,19.50
2017-08-10T07:31:10.746Z,19.53
2017-08-10T07:32:12.170Z,19.39
2017-08-10T07:33:13.608Z,19.47
2017-08-10T07:34:15.063Z,19.32
2017-08-10T07:35:16.467Z,19.29
2017-08-10T07:36:17.899Z,19.29
2017-08-10T07:37:19.332Z,19.29
2017-08-10T07:38:20.762Z,19.29
2017-08-10T07:39:22.198Z,19.18
2017-08-10T07:40:23.628Z,19.18
2017-08-10T07:41:25.059Z,19.06
2017-08-10T07:42:26.500Z,19.23
2017-08-10T07:43:27.930Z,19.21
2017-08-10T07:44:29.367Z,19.42
2017-08-10T07:45:30.808Z,19.42
2017-08-10T07:46:32.236Z,19.58
2017-08-10T07:47:33.662Z,19.60
2017-08-10T07:48:35.091Z,19.70
2017-08-10T07:49:36.522Z,19.66
2017-08-10T07:50:37.952Z,19.66
2017-08-10T07:51:39.384Z,19.65
2017-08-10T07:52:40.817Z,19.38
2017-08-10T07:53:42.239Z,19.39
2017-08-10T07:54:43.673Z,19.38
2017-08-10T07:55:45.103Z,19.43
2017-08-10T07:56:46.537Z,19.46
2017-08-10T07:57:47.972Z,19.53
2017-08-10T07:58:49.401Z,19.54
2017-08-10T07:59:50.833Z,19.42
2017-08-10T08:00:52.265Z,19.51
2017-08-10T08:01:53.692Z,19.70
2017-08-10T08:02:55.127Z,19.83
2017-08-10T08:03:56.571Z,19.78
2017-08-10T08:04:58.003Z,19.57
2017-08-10T08:05:59.445Z,19.57
2017-08-10T08:07:00.870Z,19.54
2017-08-10T08:08:02.309Z,19.61
2017-08-10T08:09:03.739Z,19.72
2017-08-10T08:10:05.176Z,19.93
2017-08-10T08:11:06.603Z,19.95
2017-08-10T08:12:08.032Z,19.88
2017-08-10T08:13:09.466Z,19.97
2017-08-10T08:14:10.901Z,19.95
2017-08-10T08:15:12.332Z,19.93
2017-08-10T08:16:13.763Z,19.88
2017-08-10T08:17:15.184Z,19.86
2017-08-10T08:18:16.620Z,19.90
2017-08-10T08:19:18.053Z,20.06
2017-08-10T08:20:19.476Z,19.83
2017-08-10T08:21:20.906Z,19.72
2017-08-10T08:22:22.333Z,19.98
2017-08-10T08:23:24.334Z,19.94
2017-08-10T08:24:25.766Z,19.95
2017-08-10T08:25:27.207Z,19.73
2017-08-10T08:26:28.632Z,19.83
2017-08-10T08:27:30.091Z,19.91
2017-08-10T08:28:31.505Z,19.97
2017-08-10T08:29:32.945Z,20.06
2017-08-10T08:30:34.380Z,20.03
2017-08-10T08:31:35.812Z,20.10
2017-08-10T08:32:37.241Z,19.98
2017-08-10T08:33:38.673Z,19.86
2017-08-10T08:34:40.102Z,20.09
2017-08-10T08:35:41.537Z,20.15
2017-08-10T08:36:42.966Z,20.20
2017-08-10T08:37:44.400Z,20.25
2017-08-10T08:38:45.829Z,20.16
2017-08-10T08:39:47.264Z,20.03
2017-08-10T08:40:48.692Z,20.08
2017-08-10T08:41:50.122Z,19.93
2017-08-10T08:42:51.572Z,20.10
2017-08-10T08:43:53.002Z,20.03
2017-08-10T08:44:54.430Z,20.18
2017-08-10T08:45:55.927Z,20.20
2017-08-10T08:46:57.361Z,20.23
2017-08-10T08:47:58.793Z,20.24
2017-08-10T08:49:00.226Z,20.20
2017-08-10T08:50:01.660Z,19.97
2017-08-10T08:51:03.092Z,19.95
2017-08-10T08:52:04.530Z,19.95
2017-08-10T08:53:05.980Z,20.03
2017-08-10T08:54:07.421Z,19.98
2017-08-10T08:55:08.854Z,20.00
2017-08-10T08:56:10.290Z,20.10
2017-08-10T08:57:11.764Z,20.28
2017-08-10T08:58:13.225Z,20.38
2017-08-10T08:59:14.772Z,20.28
2017-08-10T09:00:16.211Z,20.20
2017-08-10T09:01:17.643Z,20.25
2017-08-10T09:02:19.073Z,20.18
2017-08-10T09:03:20.502Z,20.25
2017-08-10T09:04:21.940Z,20.25
2017-08-10T09:05:23.366Z,20.06
2017-08-10T09:06:24.799Z,19.97
2017-08-10T09:07:26.239Z,20.06
2017-08-10T09:08:27.691Z,19.97
2017-08-10T09:09:29.115Z,19.75
2017-08-10T09:10:30.546Z,19.84
2017-08-10T09:11:31.993Z,19.79
2017-08-10T09:12:33.429Z,19.70
2017-08-10T09:13:34.863Z,19.68
2017-08-10T09:14:36.288Z,19.80
2017-08-10T09:15:37.725Z,19.69
2017-08-10T09:16:39.173Z,19.51
2017-08-10T09:17:40.594Z,19.63
2017-08-10T09:18:42.041Z,19.61
2017-08-10T09:19:43.556Z,19.61
2017-08-10T09:20:44.995Z,19.53
2017-08-10T09:21:46.423Z,19.63
2017-08-10T09:22:47.893Z,19.58
2017-08-10T09:23:49.331Z,19.69
2017-08-10T09:24:50.757Z,19.50
2017-08-10T09:25:52.185Z,19.66
2017-08-10T09:26:53.618Z,19.78
2017-08-10T09:27:55.045Z,19.87
2017-08-10T09:28:56.478Z,19.70
2017-08-10T09:29:57.909Z,19.70
2017-08-10T09:30:59.382Z,19.83
2017-08-10T09:32:00.787Z,19.86
2017-08-10T09:33:02.226Z,19.93
2017-08-10T09:34:03.660Z,19.95
2017-08-10T09:35:05.091Z,19.93
2017-08-10T09:36:06.520Z,20.00
2017-08-10T09:37:07.955Z,20.09
2017-08-10T09:38:09.382Z,20.03
2017-08-10T09:39:10.810Z,20.21
2017-08-10T09:40:12.248Z,20.25
2017-08-10T09:41:13.679Z,20.31
2017-08-10T09:42:15.106Z,20.23
2017-08-10T09:43:16.710Z,20.15
2017-08-10T09:44:18.129Z,20.20
2017-08-10T09:45:19.561Z,20.27
2017-08-10T09:46:20.994Z,20.30
2017-08-10T09:47:22.423Z,20.28
2017-08-10T09:48:23.854Z,20.49
2017-08-10T09:49:25.286Z,20.46
2017-08-10T09:50:26.750Z,20.42
2017-08-10T09:51:28.179Z,20.49
2017-08-10T09:52:29.610Z,20.35
2017-08-10T09:53:31.048Z,20.13
2017-08-10T09:54:32.481Z,20.34
2017-08-10T09:55:33.916Z,20.41
2017-08-10T09:56:35.349Z,20.49
2017-08-10T09:57:36.785Z,20.50
2017-08-10T09:58:38.220Z,20.50
2017-08-10T09:59:39.663Z,20.49
2017-08-10T10:00:41.089Z,20.56
2017-08-10T10:01:42.526Z,20.65
2017-08-10T10:02:43.961Z,20.69
2017-08-10T10:03:45.398Z,20.71
2017-08-10T10:04:46.833Z,20.68
2017-08-10T10:05:48.264Z,20.83
2017-08-10T10:06:49.698Z,20.81
2017-08-10T10:07:51.134Z,20.90
2017-08-10T10:08:52.570Z,21.11
2017-08-10T10:09:54.005Z,21.05
2017-08-10T10:10:55.446Z,20.99
2017-08-10T10:11:56.883Z,20.86
2017-08-10T10:12:58.311Z,20.91
2017-08-10T10:13:59.742Z,20.77
2017-08-10T10:15:01.182Z,20.76
2017-08-10T10:16:02.642Z,20.90
2017-08-10T10:17:04.076Z,20.93
2017-08-10T10:18:05.504Z,20.87
2017-08-10T10:19:06.939Z,20.95
2017-08-10T10:20:08.367Z,21.08
2017-08-10T10:21:09.812Z,21.04
2017-08-10T10:22:11.251Z,21.08
2017-08-10T10:23:12.680Z,21.16
2017-08-10T10:24:14.113Z,21.09
2017-08-10T10:25:15.545Z,21.02
2017-08-10T10:26:16.975Z,20.98
2017-08-10T10:27:18.406Z,20.99
2017-08-10T10:28:19.840Z,20.83
2017-08-10T10:29:21.273Z,20.65
2017-08-10T10:30:22.706Z,20.86
2017-08-10T10:31:24.135Z,20.91
2017-08-10T10:32:25.563Z,21.04
2017-08-10T10:33:26.995Z,21.14
2017-08-10T10:34:28.433Z,21.05
2017-08-10T10:35:29.864Z,21.14
2017-08-10T10:36:31.300Z,20.95
2017-08-10T10:37:32.733Z,20.76
2017-08-10T10:38:34.166Z,20.93
2017-08-10T10:39:35.595Z,20.95
2017-08-10T10:40:37.028Z,20.86
2017-08-10T10:41:38.465Z,20.69
2017-08-10T10:42:39.890Z,20.71
2017-08-10T10:43:41.343Z,20.76
2017-08-10T10:44:42.765Z,20.74
2017-08-10T10:45:44.200Z,20.62
2017-08-10T10:46:45.641Z,20.64
2017-08-10T10:47:47.075Z,20.56
2017-08-10T10:48:48.500Z,20.58
2017-08-10T10:49:49.931Z,20.68
2017-08-10T10:50:51.360Z,20.56
2017-08-10T10:51:52.789Z,20.53
2017-08-10T10:52:54.221Z,20.31
2017-08-10T10:53:55.648Z,20.34
2017-08-10T10:54:57.075Z,20.51
2017-08-10T10:55:58.699Z,20.68
2017-08-10T10:57:00.124Z,20.71
2017-08-10T10:58:01.558Z,20.64
2017-08-10T10:59:02.987Z,20.76
2017-08-10T11:00:04.564Z,20.83
2017-08-10T11:01:06.065Z,20.80
2017-08-10T11:02:07.496Z,20.77
2017-08-10T11:03:08.936Z,20.74
2017-08-10T11:04:10.375Z,20.69
2017-08-10T11:05:11.800Z,20.72
2017-08-10T11:06:13.233Z,20.58
2017-08-10T11:07:14.670Z,20.64
2017-08-10T11:08:16.107Z,20.54
2017-08-10T11:09:17.555Z,20.51
2017-08-10T11:10:18.981Z,20.51
2017-08-10T11:11:20.412Z,20.50
2017-08-10T11:12:21.848Z,20.62
2017-08-10T11:13:23.281Z,20.64
2017-08-10T11:14:24.713Z,20.54
2017-08-10T11:15:26.140Z,20.59
2017-08-10T11:16:27.583Z,20.65
2017-08-10T11:17:29.011Z,20.54
2017-08-10T11:18:30.441Z,20.46
2017-08-10T11:19:31.872Z,20.54
2017-08-10T11:20:33.305Z,20.38
2017-08-10T11:21:34.727Z,20.51
2017-08-10T11:22:36.175Z,20.39
2017-08-10T11:23:37.601Z,20.49
2017-08-10T11:24:39.033Z,20.53
2017-08-10T11:25:40.467Z,20.61
2017-08-10T11:26:41.890Z,20.41
2017-08-10T11:27:43.322Z,20.46
2017-08-10T11:28:44.759Z,20.34
2017-08-10T11:29:46.180Z,20.50
2017-08-10T11:30:47.606Z,20.43
2017-08-10T11:31:49.071Z,20.46
2017-08-10T11:32:50.471Z,20.43
2017-08-10T11:33:51.911Z,20.53
2017-08-10T11:34:53.344Z,20.51
2017-08-10T11:35:54.778Z,20.43
2017-08-10T11:36:56.215Z,20.41
2017-08-10T11:37:58.514Z,20.30
2017-08-10T11:38:59.978Z,20.58
2017-08-10T11:40:01.418Z,20.34
2017-08-10T11:41:02.855Z,20.39
2017-08-10T11:42:04.285Z,20.24
2017-08-10T11:43:05.757Z,20.42
2017-08-10T11:44:07.195Z,20.43
2017-08-10T11:45:08.614Z,20.38
2017-08-10T11:46:10.062Z,20.50
2017-08-10T11:47:11.501Z,20.50
2017-08-10T11:48:12.938Z,20.51
2017-08-10T11:49:14.393Z,20.51
2017-08-10T11:50:15.826Z,20.47
2017-08-10T11:51:17.291Z,20.46
2017-08-10T11:52:18.723Z,20.50
2017-08-10T11:53:20.155Z,20.47
2017-08-10T11:54:21.631Z,20.54
2017-08-10T11:55:23.060Z,20.34
2017-08-10T11:56:24.513Z,20.24
2017-08-10T11:57:25.925Z,20.18
2017-08-10T11:58:27.364Z,20.06
2017-08-10T11:59:28.796Z,20.08
2017-08-10T12:00:30.229Z,20.00
2017-08-10T12:01:31.660Z,20.18
2017-08-10T12:02:33.096Z,20.18
2017-08-10T12:03:34.532Z,19.97
2017-08-10T12:04:36.041Z,19.94
2017-08-10T12:05:37.471Z,20.03
2017-08-10T12:06:38.899Z,19.94
2017-08-10T12:07:40.330Z,19.94
2017-08-10T12:08:41.763Z,19.86
2017-08-10T12:09:43.226Z,19.90
2017-08-10T12:10:44.663Z,20.02
2017-08-10T12:11:46.124Z,20.18
2017-08-10T12:12:47.590Z,20.15
2017-08-10T12:13:49.023Z,20.10
2017-08-10T12:14:50.464Z,19.93
2017-08-10T12:15:51.895Z,20.05
2017-08-10T12:16:53.342Z,19.98
2017-08-10T12:17:54.773Z,19.98
2017-08-10T12:18:56.199Z,20.06
2017-08-10T12:19:57.632Z,20.16
2017-08-10T12:20:59.062Z,20.08
2017-08-10T12:22:00.488Z,19.88
2017-08-10T12:23:01.926Z,19.87
2017-08-10T12:24:03.358Z,19.86
2017-08-10T12:25:04.790Z,19.98
2017-08-10T12:26:06.217Z,20.03
2017-08-10T12:27:07.656Z,20.02
2017-08-10T12:28:09.077Z,20.08
2017-08-10T12:29:10.507Z,19.95
2017-08-10T12:30:11.940Z,19.87
2017-08-10T12:31:13.376Z,19.84
2017-08-10T12:32:14.819Z,19.90
2017-08-10T12:33:16.246Z,19.79
2017-08-10T12:34:17.681Z,19.76
2017-08-10T12:35:19.111Z,19.50
2017-08-10T12:36:20.542Z,19.55
2017-08-10T12:37:21.972Z,19.53
2017-08-10T12:38:23.409Z,19.42
2017-08-10T12:39:24.828Z,19.40
2017-08-10T12:40:26.264Z,19.31
2017-08-10T12:41:27.693Z,19.32
2017-08-10T12:42:29.122Z,19.31
2017-08-10T12:43:30.575Z,19.40
2017-08-10T12:44:32.001Z,19.29
2017-08-10T12:45:33.435Z,19.28
2017-08-10T12:46:34.863Z,19.42
2017-08-10T12:47:36.289Z,19.42
2017-08-10T12:48:37.731Z,19.46
2017-08-10T12:49:39.186Z,19.38
2017-08-10T12:50:40.615Z,19.13
2017-08-10T12:51:42.050Z,19.08
2017-08-10T12:52:43.481Z,19.11
2017-08-10T12:53:44.902Z,19.20
2017-08-10T12:54:46.325Z,19.21
2017-08-10T12:55:47.760Z,19.20
2017-08-10T12:56:49.191Z,19.18
2017-08-10T12:57:50.619Z,19.06
2017-08-10T12:58:52.053Z,19.11
2017-08-10T12:59:53.481Z,19.35
2017-08-10T13:00:54.913Z,19.33
2017-08-10T13:01:56.342Z,19.39
2017-08-10T13:02:57.771Z,19.40
2017-08-10T13:03:59.202Z,19.61
2017-08-10T13:05:00.636Z,19.48
2017-08-10T13:06:02.068Z,19.53
2017-08-10T13:07:03.495Z,19.42
2017-08-10T13:08:04.924Z,19.23
2017-08-10T13:09:06.349Z,19.36
2017-08-10T13:10:07.785Z,19.40
2017-08-10T13:11:09.215Z,19.46